Continental, OH (45837)

10:07 PM EST on November 27, 2014 (GMT -0500)
Homer March Farms | Change Station
CLOSE
Current Station
Personal Weather Station
Location: Continental, OH
Elevation: 715 ft
Nearby Weather Stations

Elev 715 ft 41.11 °N, 84.19 °W | Updated 1 second ago

Overcast
Overcast
26.6 °F
Feels Like 18 °F
N
8.1
Wind Variable Wind from WNW
Gusts 8.1 mph

Today
High -- | Low -- °F
--% Chance of Precip.
Yesterday
High -- | Low -- °F
Precip. -- in
7:38 AM 5:10 PM
Waxing Crescent, 35% visible
Pressure 30.37 in
Visibility 10.0 miles
Clouds Overcast 6000 ft
Windchill 18 °F
Dew Point 24 °F
Humidity 88%
Rainfall 0.00 in
Snow Depth Not available.
UV 0 out of 12
Pollen .10 out of 12
Air Quality Not available.
Flu Activity Not available.
METAR KDFI 280253Z AUTO 32009KT 10SM OVC060 M03/M08 A3034 RMK AO2 SLP283 T10281078 51018

More Conditions Fewer Conditions

Pressure 30.37 in
Visibility 10.0 miles
Clouds Overcast 6000 ft
Windchill 18 °F
Dew Point 24 °F
Humidity 88%
Rainfall 0.00 in
Snow Depth Not available.
UV 0 out of 12
Pollen .10 out of 12
Air Quality Not available.
Flu Activity Not available.
METAR KDFI 280253Z AUTO 32009KT 10SM OVC060 M03/M08 A3034 RMK AO2 SLP283 T10281078 51018

More Conditions Fewer Conditions

10-Day Weather Forecast

Almanac

Astronomy

Nov. 27, 2014 Rise Set
Actual Time
Civil Twilight
Nautical Twilight
Astronomical Twilight
Moon
Length of Visible Light
Length of Day
Tomorrow will be .
, % of the Moon is Illuminated

Today's Extremes

State Highs State Lows

Community

WunderPhotos

Upload Photos

1,774,166 photos uploaded!

WunderBlogs® & News

Nearby

Air Quality

  Air Quality AQ Index Pollutant
Not available.

Snow Depth

Station Depth Elevation

Earthquake Activity

City Distance Mag. Time & Date
Minimum magnitude displayed is 2.5.

Coastal Water Temperatures

Place Temperature

Nearby Weather Stations